Time;durP1;ratioP1;P1;durP2;ratioP2;P2;SDS_P1;SDS_P2;PMS_P1;PMS_P2;Temp;Humidity;BMP_temperature;BMP_pressure;BME280_temperature;BME280_humidity;BME280_pressure;Samples;Min_cycle;Max_cycle;Signal;HPM_P1;HPM_P2
2021/05/17 00:00:23;;;;;;;2.72;1.00;;;;;;;19.50;48.97;99955.97;5053924;28;20579;-64
2021/05/17 00:02:53;;;;;;;2.20;1.00;;;;;;;19.50;49.07;99959.44;5054406;28;20029;-64
2021/05/17 00:05:19;;;;;;;1.80;0.88;;;;;;;19.49;49.09;99954.31;5053173;28;20090;-63
2021/05/17 00:07:45;;;;;;;2.03;0.85;;;;;;;19.49;48.84;99951.69;5054519;28;20029;-64
2021/05/17 00:10:11;;;;;;;2.33;0.80;;;;;;;19.46;49.21;99947.53;5054400;28;20021;-64
2021/05/17 00:12:37;;;;;;;2.78;0.95;;;;;;;19.48;49.25;99956.13;5053333;28;20490;-64
2021/05/17 00:15:09;;;;;;;2.50;0.95;;;;;;;19.47;49.05;99957.13;5054759;28;20029;-65
2021/05/17 00:17:34;;;;;;;2.63;0.80;;;;;;;19.46;49.33;99954.63;5053918;28;20025;-64
2021/05/17 00:20:02;;;;;;;1.83;0.82;;;;;;;19.46;48.93;99952.00;5053223;28;20067;-65
2021/05/17 00:22:28;;;;;;;3.13;1.10;;;;;;;19.45;49.18;99952.97;5053975;28;20083;-63
2021/05/17 00:24:54;;;;;;;2.17;0.90;;;;;;;19.44;48.81;99952.13;5054300;28;20021;-65
2021/05/17 00:27:19;;;;;;;1.83;0.80;;;;;;;19.43;49.21;99955.75;5053400;28;20051;-64
2021/05/17 00:29:45;;;;;;;1.88;0.73;;;;;;;19.43;48.81;99952.28;5054098;28;20025;-64
2021/05/17 00:32:11;;;;;;;1.90;0.80;;;;;;;19.42;49.17;99956.72;5053887;28;20025;-63
2021/05/17 00:34:37;;;;;;;2.17;1.00;;;;;;;19.40;48.81;99948.97;5052626;28;20430;-63
2021/05/17 00:37:02;;;;;;;3.83;1.00;;;;;;;19.41;49.15;99949.81;5054213;28;20384;-64
2021/05/17 00:39:28;;;;;;;2.53;0.88;;;;;;;19.40;48.82;99954.25;5053105;28;20409;-63
2021/05/17 00:41:53;;;;;;;2.10;0.90;;;;;;;19.39;49.10;99949.09;5053396;28;20021;-63
2021/05/17 00:44:19;;;;;;;4.03;1.10;;;;;;;19.39;49.09;99946.47;5055347;28;20028;-64
2021/05/17 00:46:45;;;;;;;2.40;0.93;;;;;;;19.38;48.72;99950.13;5056582;28;20024;-64
2021/05/17 00:49:10;;;;;;;2.95;0.95;;;;;;;19.37;49.11;99951.09;5055324;28;20044;-65
2021/05/17 00:51:36;;;;;;;4.25;0.90;;;;;;;19.36;48.90;99946.81;5056713;28;20017;-64
2021/05/17 00:54:03;;;;;;;1.95;0.88;;;;;;;19.38;49.00;99952.75;5056152;28;20556;-63
2021/05/17 00:56:29;;;;;;;3.35;1.25;;;;;;;19.37;48.72;99948.44;5054269;28;20024;-64
2021/05/17 00:58:54;;;;;;;2.40;1.00;;;;;;;19.33;48.99;99936.53;5055858;28;20036;-64
2021/05/17 01:01:20;;;;;;;2.65;0.80;;;;;;;19.35;49.17;99939.84;5054470;28;20129;-64
2021/05/17 01:03:46;;;;;;;3.13;1.10;;;;;;;19.35;48.99;99934.56;5055372;28;20114;-64
2021/05/17 01:06:12;;;;;;;2.33;0.80;;;;;;;19.32;48.71;99935.69;5054363;28;20096;-65
2021/05/17 01:09:07;;;;;;;1.88;0.80;;;;;;;19.33;48.89;99934.72;5052764;28;20059;-64
2021/05/17 01:11:33;;;;;;;2.45;0.80;;;;;;;19.32;48.89;99932.22;5051000;28;20104;-63
2021/05/17 01:14:01;;;;;;;2.30;0.90;;;;;;;19.32;48.67;99932.22;5053223;28;20029;-63
2021/05/17 01:16:27;;;;;;;2.75;0.93;;;;;;;19.31;48.82;99927.91;5052324;28;20052;-64
2021/05/17 01:18:53;;;;;;;3.10;1.08;;;;;;;19.29;48.81;99932.53;5053276;28;20103;-64
2021/05/17 01:21:22;;;;;;;2.67;1.02;;;;;;;19.30;48.81;99935.03;5053021;28;20415;-63
2021/05/17 01:23:55;;;;;;;2.25;0.95;;;;;;;19.30;49.09;99936.84;5052530;28;20441;-63
2021/05/17 01:26:23;;;;;;;3.33;0.98;;;;;;;19.28;48.69;99937.00;5052758;28;20163;-65
2021/05/17 01:28:49;;;;;;;2.00;0.90;;;;;;;19.28;48.98;99938.78;5052829;28;20464;-64
2021/05/17 01:31:15;;;;;;;2.97;1.00;;;;;;;19.27;48.93;99931.88;5052193;28;20094;-64
2021/05/17 01:33:43;;;;;;;1.90;0.88;;;;;;;19.28;48.64;99933.50;5052731;28;20435;-63
2021/05/17 01:36:11;;;;;;;2.28;0.95;;;;;;;19.26;48.88;99933.66;5053170;28;20028;-64
2021/05/17 01:38:39;;;;;;;2.15;0.90;;;;;;;19.23;48.79;99931.31;5053019;28;20021;-64
2021/05/17 01:41:10;;;;;;;3.45;1.00;;;;;;;19.25;48.62;99929.38;5053337;28;20036;-63
2021/05/17 01:43:45;;;;;;;2.05;0.80;;;;;;;19.26;48.92;99935.50;5052929;28;20075;-63
2021/05/17 01:46:16;;;;;;;2.85;1.00;;;;;;;19.25;48.46;99939.94;5051925;28;20043;-64
2021/05/17 01:48:43;;;;;;;1.98;0.98;;;;;;;19.25;49.03;99933.81;5052810;28;20021;-63
2021/05/17 01:51:11;;;;;;;2.95;1.00;;;;;;;19.24;48.95;99937.47;5051035;28;20027;-64
2021/05/17 01:53:37;;;;;;;3.67;1.05;;;;;;;19.24;48.77;99938.28;5052194;28;20112;-64
2021/05/17 01:56:04;;;;;;;2.45;0.90;;;;;;;19.24;48.87;99940.09;5052074;28;20029;-64
2021/05/17 01:58:31;;;;;;;2.15;0.90;;;;;;;19.21;48.71;99938.59;5051890;28;20021;-64
2021/05/17 02:00:57;;;;;;;2.17;1.00;;;;;;;19.23;48.68;99935.78;5052377;28;20069;-65
2021/05/17 02:03:22;;;;;;;2.60;1.00;;;;;;;19.19;49.02;99933.47;5052188;28;20060;-65
2021/05/17 02:05:49;;;;;;;1.75;0.90;;;;;;;19.21;48.46;99935.94;5051872;28;20451;-64
2021/05/17 02:08:17;;;;;;;3.28;1.55;;;;;;;19.20;48.90;99934.28;5051942;28;20025;-64
2021/05/17 02:10:46;;;;;;;2.40;1.00;;;;;;;19.21;48.47;99936.75;5052465;28;20029;-64
2021/05/17 02:13:17;;;;;;;1.95;0.90;;;;;;;19.19;48.63;99925.53;5051366;28;20032;-64
2021/05/17 02:15:44;;;;;;;2.17;1.00;;;;;;;19.18;48.53;99929.19;5052280;28;20017;-64
2021/05/17 02:18:10;;;;;;;2.22;1.00;;;;;;;19.19;48.72;99932.63;5051964;28;20055;-64
2021/05/17 02:20:38;;;;;;;3.75;1.02;;;;;;;19.18;48.64;99939.75;5051231;28;20025;-64
2021/05/17 02:23:04;;;;;;;3.25;1.10;;;;;;;19.15;48.76;99933.91;5052133;28;20020;-64
2021/05/17 02:25:30;;;;;;;2.20;0.90;;;;;;;19.18;48.67;99936.25;5051971;28;20064;-64
2021/05/17 02:27:57;;;;;;;3.30;1.00;;;;;;;19.17;48.84;99929.34;5051391;28;20029;-64
2021/05/17 02:30:24;;;;;;;2.92;1.10;;;;;;;19.17;48.92;99930.16;5051578;28;20039;-64
2021/05/17 02:32:50;;;;;;;2.40;0.98;;;;;;;19.16;48.64;99932.94;5051037;28;20116;-64
2021/05/17 02:35:17;;;;;;;3.28;1.20;;;;;;;19.16;48.56;99928.47;5051467;28;20162;-64
2021/05/17 02:37:43;;;;;;;2.25;1.00;;;;;;;19.16;48.96;99931.13;5051533;28;20473;-63
2021/05/17 02:40:09;;;;;;;3.10;1.08;;;;;;;19.15;49.00;99932.13;5050899;28;20120;-64
2021/05/17 02:42:35;;;;;;;3.13;1.10;;;;;;;19.14;48.66;99933.09;5051628;28;20135;-64
2021/05/17 02:45:06;;;;;;;2.67;1.10;;;;;;;19.14;48.76;99933.09;5051657;28;20713;-64
2021/05/17 02:47:36;;;;;;;3.08;1.30;;;;;;;19.15;48.76;99936.56;5050738;28;20032;-63
2021/05/17 02:50:03;;;;;;;2.35;1.20;;;;;;;19.14;48.69;99934.91;5051333;28;20468;-64
2021/05/17 02:52:30;;;;;;;2.30;1.08;;;;;;;19.12;48.62;99937.72;5050438;28;20441;-64
2021/05/17 02:55:10;;;;;;;2.42;1.10;;;;;;;19.13;48.63;99935.88;5050907;28;20029;-63
2021/05/17 02:57:43;;;;;;;2.30;0.93;;;;;;;19.13;48.78;99931.44;5051494;28;20112;-64
2021/05/17 03:00:21;;;;;;;1.85;0.90;;;;;;;19.12;48.56;99937.72;5050893;28;20391;-64
2021/05/17 03:02:56;;;;;;;2.33;0.90;;;;;;;19.12;48.66;99937.72;5051053;28;20396;-64
2021/05/17 03:05:22;;;;;;;2.70;1.15;;;;;;;19.12;48.95;99934.22;5055281;28;20132;-64
2021/05/17 03:07:59;;;;;;;3.38;1.02;;;;;;;19.11;48.96;99935.22;5055281;28;20029;-64
2021/05/17 03:10:26;;;;;;;2.35;1.00;;;;;;;19.08;48.54;99933.69;5055079;28;20036;-63
2021/05/17 03:12:55;;;;;;;2.67;1.02;;;;;;;19.10;48.47;99931.72;5055108;28;20082;-63
2021/05/17 03:15:21;;;;;;;3.08;1.10;;;;;;;19.08;48.96;99932.88;5054355;28;20058;-64
2021/05/17 03:17:46;;;;;;;2.58;0.90;;;;;;;19.09;49.03;99931.88;5055320;28;20039;-64
2021/05/17 03:20:12;;;;;;;2.67;0.95;;;;;;;19.06;48.97;99929.53;5054833;28;20025;-64
2021/05/17 03:22:38;;;;;;;2.70;1.25;;;;;;;19.06;48.87;99927.75;5054453;28;20032;-64
2021/05/17 03:25:07;;;;;;;3.47;0.93;;;;;;;19.06;48.77;99935.69;5054779;28;20099;-64
2021/05/17 03:27:32;;;;;;;2.25;0.80;;;;;;;19.08;48.87;99935.53;5055119;28;20025;-64
2021/05/17 03:29:58;;;;;;;2.25;0.90;;;;;;;19.07;48.95;99936.50;5054451;28;20021;-64
2021/05/17 03:32:24;;;;;;;2.88;0.93;;;;;;;19.07;48.86;99937.31;5054644;28;20032;-63
2021/05/17 03:34:50;;;;;;;2.22;0.90;;;;;;;19.07;48.71;99933.84;5055128;28;20045;-63
2021/05/17 03:37:16;;;;;;;2.33;1.00;;;;;;;19.07;48.96;99929.38;5053896;28;20071;-64
2021/05/17 03:39:46;;;;;;;1.98;0.90;;;;;;;19.07;48.70;99929.38;5054801;28;20021;-63
2021/05/17 03:42:11;;;;;;;2.58;0.90;;;;;;;19.07;48.68;99936.50;5054606;28;20028;-63
2021/05/17 03:44:37;;;;;;;1.77;0.90;;;;;;;19.04;48.72;99932.34;5054234;28;20120;-64
2021/05/17 03:47:02;;;;;;;2.95;1.15;;;;;;;19.05;48.85;99931.38;5054273;28;20082;-64
2021/05/17 03:49:28;;;;;;;2.63;1.00;;;;;;;19.05;48.61;99930.53;5054746;28;20403;-63
2021/05/17 03:51:53;;;;;;;2.17;0.93;;;;;;;19.04;48.92;99934.97;5054064;28;20119;-65
2021/05/17 03:54:18;;;;;;;2.97;0.93;;;;;;;19.03;49.04;99933.34;5054283;28;20021;-64
2021/05/17 03:56:44;;;;;;;2.55;0.90;;;;;;;19.03;48.63;99931.53;5054786;28;20025;-65
2021/05/17 03:59:09;;;;;;;2.50;1.02;;;;;;;19.03;48.70;99939.44;5053827;28;20083;-64
2021/05/17 04:01:34;;;;;;;2.00;0.90;;;;;;;19.03;48.56;99935.97;5054525;28;20395;-65
2021/05/17 04:04:00;;;;;;;2.67;1.00;;;;;;;19.02;48.97;99929.84;5054324;28;20041;-64
2021/05/17 04:06:32;;;;;;;2.85;1.00;;;;;;;19.01;48.66;99935.31;5053410;28;20067;-65
2021/05/17 04:14:25;;;;;;;2.15;0.88;;;;;;;19.01;48.64;99944.06;5052827;28;20040;-64
2021/05/17 04:16:50;;;;;;;2.00;0.90;;;;;;;19.00;48.92;99936.28;5053999;28;20041;-64
2021/05/17 04:19:17;;;;;;;2.92;1.20;;;;;;;19.00;48.94;99944.19;5052820;28;20047;-63
2021/05/17 04:21:43;;;;;;;2.13;0.98;;;;;;;18.99;48.82;99943.38;5054133;28;20380;-64
2021/05/17 04:24:09;;;;;;;2.55;0.80;;;;;;;18.99;48.62;99942.53;5053883;28;20105;-65
2021/05/17 04:26:34;;;;;;;3.03;1.00;;;;;;;19.00;48.36;99941.56;5053265;28;20116;-64
2021/05/17 04:28:59;;;;;;;2.30;0.90;;;;;;;18.98;48.93;99944.34;5053865;28;20108;-64
2021/05/17 04:31:25;;;;;;;3.65;1.10;;;;;;;18.96;48.76;99934.91;5053545;28;20413;-64
2021/05/17 04:33:50;;;;;;;1.88;0.88;;;;;;;18.96;49.05;99937.56;5052746;28;20033;-64
2021/05/17 04:36:17;;;;;;;2.38;0.82;;;;;;;18.97;48.70;99945.31;5053201;28;20025;-63
2021/05/17 04:38:42;;;;;;;4.05;0.77;;;;;;;18.95;48.93;99939.38;5053799;28;20029;-63
2021/05/17 04:41:07;;;;;;;2.67;1.10;;;;;;;18.97;49.10;99947.97;5052601;28;20164;-64
2021/05/17 04:43:33;;;;;;;2.88;0.90;;;;;;;18.97;48.79;99941.88;5053775;28;20032;-63
2021/05/17 04:45:58;;;;;;;2.17;0.85;;;;;;;18.97;48.77;99944.50;5053643;28;20491;-64
2021/05/17 04:48:23;;;;;;;1.73;0.90;;;;;;;18.96;48.86;99946.31;5052340;28;20024;-64
2021/05/17 04:50:49;;;;;;;2.20;1.00;;;;;;;18.95;48.96;99952.56;5053398;28;20033;-64
2021/05/17 04:53:14;;;;;;;1.65;0.80;;;;;;;18.96;48.79;99951.59;5053312;28;20105;-64
2021/05/17 04:55:39;;;;;;;2.38;0.80;;;;;;;18.96;48.64;99951.59;5052642;28;20021;-65
2021/05/17 04:58:08;;;;;;;3.50;1.02;;;;;;;18.96;48.79;99943.69;5052802;28;20024;-63
2021/05/17 05:00:33;;;;;;;1.75;0.90;;;;;;;18.95;48.78;99951.75;5052649;28;20396;-64
2021/05/17 05:02:58;;;;;;;2.35;0.85;;;;;;;18.96;48.75;99956.03;5053038;28;20070;-64
2021/05/17 05:05:23;;;;;;;1.95;0.80;;;;;;;18.96;48.71;99956.03;5052667;28;20041;-64
2021/05/17 05:07:49;;;;;;;2.20;0.90;;;;;;;18.96;49.02;99956.03;5052573;28;20029;-63
2021/05/17 05:10:14;;;;;;;2.50;0.95;;;;;;;18.96;48.75;99956.03;5052982;28;20025;-65
2021/05/17 05:12:39;;;;;;;2.38;0.95;;;;;;;18.95;48.90;99955.22;5053274;28;20029;-64
2021/05/17 05:15:06;;;;;;;2.80;0.90;;;;;;;18.96;48.88;99961.31;5051921;28;20464;-64
2021/05/17 05:17:32;;;;;;;2.05;0.73;;;;;;;18.94;48.82;99968.56;5052702;28;20028;-64
2021/05/17 05:19:57;;;;;;;2.10;0.80;;;;;;;18.95;49.02;99960.50;5052792;28;20028;-64
2021/05/17 05:22:24;;;;;;;1.52;0.73;;;;;;;18.91;48.72;99959.13;5052033;28;20425;-64
2021/05/17 05:24:49;;;;;;;3.33;0.90;;;;;;;18.95;48.97;99963.13;5052759;28;20048;-63
2021/05/17 05:27:59;;;;;;;2.42;0.95;;;;;;;18.98;48.97;99959.38;5052109;28;20437;-64
2021/05/17 05:32:48;;;;;;;2.97;0.95;;;;;;;19.06;49.31;99962.09;5052985;28;20032;-64
2021/05/17 05:35:13;;;;;;;2.08;0.90;;;;;;;19.08;49.04;99960.09;5052534;28;20025;-65
2021/05/17 05:37:38;;;;;;;3.65;0.88;;;;;;;19.13;49.11;99964.94;5051808;28;20522;-64
2021/05/17 05:40:06;;;;;;;1.98;0.80;;;;;;;19.14;48.84;99964.78;5052242;28;20052;-67
2021/05/17 05:42:31;;;;;;;2.13;0.80;;;;;;;19.17;48.68;99963.66;5052447;28;20412;-65
2021/05/17 05:44:56;;;;;;;1.23;0.70;;;;;;;19.19;48.71;99965.16;5051547;28;20108;-64
2021/05/17 05:47:22;;;;;;;3.28;0.98;;;;;;;19.25;48.67;99968.16;5051760;28;20495;-65
2021/05/17 05:49:48;;;;;;;1.98;0.80;;;;;;;19.30;49.06;99961.44;5051630;28;20108;-64
2021/05/17 05:52:15;;;;;;;3.25;0.77;;;;;;;19.35;48.79;99961.81;5051642;28;20025;-67
2021/05/17 05:54:40;;;;;;;3.00;0.88;;;;;;;19.39;49.03;99968.47;5052171;28;20144;-64
2021/05/17 05:57:07;;;;;;;2.42;1.02;;;;;;;19.44;48.81;99964.50;5051070;28;20044;-66
2021/05/17 05:59:33;;;;;;;2.47;0.82;;;;;;;19.48;48.93;99964.03;5052195;28;20060;-66
2021/05/17 06:01:59;;;;;;;2.00;0.70;;;;;;;19.49;49.08;99962.25;5052098;28;20068;-65
2021/05/17 06:04:24;;;;;;;2.55;0.80;;;;;;;19.51;48.56;99971.66;5050947;28;20464;-66
2021/05/17 06:06:50;;;;;;;3.10;1.00;;;;;;;19.52;48.86;99965.41;5051974;28;20471;-64
2021/05/17 06:09:15;;;;;;;2.90;0.90;;;;;;;19.53;48.99;99967.03;5051788;28;20361;-63
2021/05/17 06:11:41;;;;;;;1.67;0.75;;;;;;;19.56;48.96;99979.94;5051176;28;20024;-64
2021/05/17 06:14:07;;;;;;;3.72;1.00;;;;;;;19.61;48.70;99971.56;5051390;28;20103;-62
2021/05/17 06:16:34;;;;;;;2.55;0.80;;;;;;;19.65;48.88;99972.91;5051676;28;20029;-67
2021/05/17 06:19:00;;;;;;;2.78;0.70;;;;;;;19.71;48.72;99974.94;5051169;28;20040;-63
2021/05/17 06:21:27;;;;;;;3.35;0.90;;;;;;;19.73;48.79;99975.59;5051613;28;20021;-64
2021/05/17 06:23:53;;;;;;;3.45;0.88;;;;;;;19.78;49.08;99971.72;5051762;28;20028;-65
2021/05/17 06:26:19;;;;;;;2.05;0.63;;;;;;;19.81;48.48;99971.41;5050692;28;20064;-63
2021/05/17 06:28:44;;;;;;;3.30;0.95;;;;;;;19.83;48.54;99972.06;5051723;28;20033;-63
2021/05/17 06:31:12;;;;;;;2.60;0.80;;;;;;;19.82;48.63;99965.97;5051495;28;20204;-64
2021/05/17 06:33:38;;;;;;;3.03;0.77;;;;;;;19.85;48.61;99972.72;5051125;28;20029;-64
2021/05/17 06:36:04;;;;;;;3.30;1.10;;;;;;;19.85;48.87;99981.50;5051573;28;20053;-63
2021/05/17 06:38:30;;;;;;;2.92;0.95;;;;;;;19.85;49.16;99976.22;5053574;28;20048;-63
2021/05/17 06:40:56;;;;;;;3.60;0.93;;;;;;;19.86;49.16;99983.16;5055165;28;20039;-65
2021/05/17 06:43:22;;;;;;;4.00;0.90;;;;;;;19.85;48.89;99978.88;5055601;28;20028;-63
2021/05/17 06:45:48;;;;;;;3.45;0.90;;;;;;;19.83;48.97;99980.81;5053193;28;20135;-63
2021/05/17 06:48:13;;;;;;;2.75;0.77;;;;;;;19.83;49.34;99978.16;5054981;28;20468;-64
2021/05/17 06:50:45;;;;;;;4.90;1.00;;;;;;;19.83;49.32;99980.81;5055904;28;20523;-66
2021/05/17 06:53:11;;;;;;;3.40;1.02;;;;;;;19.81;49.37;99977.50;5003575;28;20076;-65
2021/05/17 06:55:42;;;;;;;2.25;0.77;;;;;;;19.72;49.43;99975.75;5054197;28;20472;-65
2021/05/17 06:58:16;;;;;;;3.15;0.90;;;;;;;19.79;49.32;99992.72;5055685;28;20045;-64
2021/05/17 07:00:42;;;;;;;;;;;;;;;19.77;49.33;99994.66;5055409;28;20023;-64
2021/05/17 07:03:08;;;;;;;3.45;0.90;;;;;;;19.73;49.76;99990.66;5055111;28;19958;-64
2021/05/17 07:05:35;;;;;;;4.15;1.02;;;;;;;19.74;49.62;100000.22;5055553;28;20345;-64
2021/05/17 07:13:13;;;;;;;2.38;0.95;;;;;;;19.72;50.10;100004.84;5056681;28;20066;-67
2021/05/17 07:15:42;;;;;;;4.15;1.10;;;;;;;19.70;49.79;100001.53;5055162;28;20033;-64
2021/05/17 07:18:08;;;;;;;2.40;0.80;;;;;;;19.68;49.99;99999.03;5055692;28;20029;-64
2021/05/17 07:26:01;;;;;;;3.20;0.80;;;;;;;19.70;49.81;100006.81;5056449;28;20036;-65
2021/05/17 07:28:27;;;;;;;2.67;0.90;;;;;;;19.69;50.19;100007.78;5055524;28;20551;-64
2021/05/17 07:30:53;;;;;;;2.33;0.70;;;;;;;19.70;50.00;100006.81;5054812;28;20124;-65
2021/05/17 07:33:19;;;;;;;3.22;0.80;;;;;;;19.67;49.79;100010.59;5054984;28;20447;-64
2021/05/17 07:35:44;;;;;;;3.20;0.80;;;;;;;19.69;49.75;100010.44;5054641;28;20456;-63
2021/05/17 07:38:10;;;;;;;3.63;0.95;;;;;;;19.69;49.95;100005.16;5055282;28;20028;-65
2021/05/17 07:40:36;;;;;;;3.95;0.90;;;;;;;19.70;49.67;100006.81;5055290;28;20048;-64
2021/05/17 07:43:02;;;;;;;3.55;0.82;;;;;;;19.71;49.60;100003.16;5054728;28;20476;-63
2021/05/17 07:45:27;;;;;;;2.35;1.00;;;;;;;19.72;49.89;100000.38;5055181;28;20025;-66
2021/05/17 07:47:53;;;;;;;3.20;0.70;;;;;;;19.71;49.92;100001.38;5056046;28;20100;-63
2021/05/17 07:50:18;;;;;;;2.95;0.90;;;;;;;19.76;49.83;100000.94;5054126;28;20095;-63
2021/05/17 07:52:44;;;;;;;2.35;0.73;;;;;;;19.75;49.57;100002.72;5055248;28;20545;-64
2021/05/17 07:55:10;;;;;;;2.65;0.70;;;;;;;19.75;49.66;100004.53;5054830;28;20507;-66
2021/05/17 07:57:36;;;;;;;3.00;0.77;;;;;;;19.77;49.59;100009.69;5054480;28;20075;-68
2021/05/17 08:00:04;;;;;;;2.17;0.70;;;;;;;19.75;49.77;100000.06;5054740;28;20465;-64
2021/05/17 08:02:29;;;;;;;1.48;0.70;;;;;;;19.75;49.59;100000.06;5054884;28;20045;-66
2021/05/17 08:04:55;;;;;;;2.10;0.80;;;;;;;19.74;49.53;100005.50;5054589;28;20103;-66
2021/05/17 08:07:21;;;;;;;3.38;0.95;;;;;;;19.73;49.67;100002.03;5053638;28;20901;-66
2021/05/17 08:09:48;;;;;;;3.40;0.75;;;;;;;19.72;50.01;100016.22;5054849;28;20324;-66
2021/05/17 08:12:13;;;;;;;2.20;0.80;;;;;;;19.72;49.79;100013.59;5053349;28;20033;-65
2021/05/17 08:14:39;;;;;;;2.45;0.90;;;;;;;19.72;49.90;100010.94;5054244;28;20131;-65
2021/05/17 08:17:05;;;;;;;2.92;0.90;;;;;;;19.70;49.58;100012.09;5053774;28;20392;-63
2021/05/17 08:19:32;;;;;;;2.25;0.90;;;;;;;19.68;49.64;100009.63;5053410;28;20025;-65
2021/05/17 08:21:58;;;;;;;2.80;0.70;;;;;;;19.68;50.00;100011.44;5054101;28;20029;-64
2021/05/17 08:24:24;;;;;;;3.70;1.13;;;;;;;19.68;50.03;100016.72;5052983;28;20017;-64
2021/05/17 08:26:50;;;;;;;2.22;0.70;;;;;;;19.68;49.94;100011.44;5053952;28;20460;-65
2021/05/17 08:29:15;;;;;;;2.47;0.70;;;;;;;19.69;49.89;100027.16;5053455;28;20028;-65
2021/05/17 08:31:41;;;;;;;4.00;0.90;;;;;;;19.68;49.94;100020.19;5053242;28;20037;-63
2021/05/17 08:34:06;;;;;;;3.50;0.90;;;;;;;19.65;49.70;100025.78;5053734;28;20029;-65
2021/05/17 08:36:32;;;;;;;2.83;0.80;;;;;;;19.65;49.97;100028.44;5053730;28;20025;-63
2021/05/17 08:38:57;;;;;;;3.17;0.98;;;;;;;19.64;49.92;100024.13;5052998;28;20029;-64
2021/05/17 08:41:23;;;;;;;3.25;0.90;;;;;;;19.65;50.05;100022.31;5053475;28;20119;-65
2021/05/17 08:43:49;;;;;;;1.75;0.70;;;;;;;19.62;49.78;100020.81;5053523;28;20021;-64
2021/05/17 08:46:15;;;;;;;3.63;0.90;;;;;;;19.64;50.24;100020.66;5052491;28;20051;-64
2021/05/17 08:48:47;;;;;;;4.03;0.90;;;;;;;19.63;49.81;100019.84;5053517;28;20031;-65
2021/05/17 08:51:31;;;;;;;4.57;0.90;;;;;;;19.60;49.92;100020.13;5053399;28;20025;-64
2021/05/17 08:54:02;;;;;;;3.83;1.10;;;;;;;19.56;50.03;100006.38;5052743;28;20032;-64
2021/05/17 08:56:28;;;;;;;2.67;0.77;;;;;;;19.54;49.95;100011.00;5053459;28;20052;-63
2021/05/17 08:58:56;;;;;;;1.65;0.70;;;;;;;19.50;50.41;100024.66;5053755;28;20032;-62
2021/05/17 09:01:22;;;;;;;2.25;0.80;;;;;;;19.50;50.28;100032.59;5051265;28;20051;-61
2021/05/17 09:04:09;;;;;;;4.68;0.90;;;;;;;19.47;50.44;100022.34;5053263;28;20120;-63
2021/05/17 09:06:41;;;;;;;3.40;1.00;;;;;;;19.46;50.17;100032.09;5052867;28;20032;-63
2021/05/17 09:09:22;;;;;;;2.47;0.80;;;;;;;19.46;50.38;100028.63;5052775;28;20111;-65
2021/05/17 09:11:50;;;;;;;3.20;0.90;;;;;;;19.49;50.46;100025.66;5054248;28;20078;-64
2021/05/17 09:14:16;;;;;;;2.38;0.80;;;;;;;19.50;50.46;100019.38;5052569;28;20544;-64
2021/05/17 09:16:46;;;;;;;2.67;0.93;;;;;;;19.56;50.49;100024.88;5053628;28;20033;-62
2021/05/17 09:19:12;;;;;;;4.57;1.00;;;;;;;19.60;50.81;100021.94;5053068;28;20028;-63
2021/05/17 09:21:58;;;;;;;2.72;0.70;;;;;;;19.62;50.66;100023.44;5052223;28;20088;-63
2021/05/17 09:24:38;;;;;;;2.58;0.88;;;;;;;19.64;50.45;100021.47;5053220;28;20021;-64
2021/05/17 09:27:05;;;;;;;2.08;0.80;;;;;;;19.64;50.58;100021.47;5053400;28;20017;-61
2021/05/17 09:29:39;;;;;;;2.75;0.80;;;;;;;19.64;50.92;100023.28;5052379;28;20033;-63
2021/05/17 09:32:19;;;;;;;1.92;0.77;;;;;;;19.63;51.02;100030.41;5052981;28;20047;-63
2021/05/17 09:34:47;;;;;;;2.33;0.93;;;;;;;19.62;50.87;100031.38;5052186;28;20033;-62
2021/05/17 09:37:13;;;;;;;1.98;0.82;;;;;;;19.61;50.97;100031.53;5052388;28;20036;-66
2021/05/17 09:39:48;;;;;;;2.70;1.02;;;;;;;19.58;51.09;100033.50;5052990;28;20104;-64
2021/05/17 09:42:13;;;;;;;1.55;0.70;;;;;;;19.61;51.09;100034.16;5052416;28;20440;-64
2021/05/17 09:44:47;;;;;;;2.45;0.77;;;;;;;19.61;50.81;100036.81;5054268;28;20029;-63
2021/05/17 09:47:20;;;;;;;3.63;0.70;;;;;;;19.59;50.77;100034.31;5052524;28;20100;-62
2021/05/17 09:49:48;;;;;;;2.60;0.75;;;;;;;19.57;50.90;100029.19;5052141;28;20071;-62
2021/05/17 09:52:33;;;;;;;2.60;0.75;;;;;;;19.56;50.70;100032.81;5052313;28;20021;-63
2021/05/17 09:55:00;;;;;;;;;;;;;;;19.56;50.84;100040.72;5053187;28;20029;-61
2021/05/17 09:57:35;;;;;;;2.17;0.80;;;;;;;19.55;51.27;100039.09;5051955;28;19919;-62
2021/05/17 10:00:22;;;;;;;2.25;0.70;;;;;;;19.54;50.88;100040.06;5052855;28;20056;-64
2021/05/17 10:02:58;;;;;;;2.42;0.90;;;;;;;19.52;51.00;100055.25;5052752;28;20403;-64
2021/05/17 10:05:28;;;;;;;2.05;0.80;;;;;;;19.51;51.04;100048.31;5052491;28;20119;-60
2021/05/17 10:08:04;;;;;;;2.88;0.90;;;;;;;19.50;51.22;100048.44;5052335;28;20025;-63
2021/05/17 10:10:32;;;;;;;2.03;0.90;;;;;;;19.51;50.83;100050.94;5051929;28;20464;-63
2021/05/17 10:13:00;;;;;;;3.90;0.85;;;;;;;19.52;51.08;100057.91;5052785;28;20048;-64
2021/05/17 10:15:28;;;;;;;1.55;0.65;;;;;;;19.52;50.96;100049.16;5052146;28;20362;-64
2021/05/17 10:17:53;;;;;;;1.98;0.75;;;;;;;19.51;51.16;100061.50;5051504;28;20673;-64
2021/05/17 10:20:21;;;;;;;3.63;0.77;;;;;;;19.50;51.18;100059.88;5052117;28;20029;-64
2021/05/17 10:22:49;;;;;;;2.03;0.70;;;;;;;19.51;50.95;100058.06;5052328;28;20119;-63
2021/05/17 10:25:22;;;;;;;4.63;0.90;;;;;;;19.48;51.11;100056.53;5051191;28;20049;-64
2021/05/17 10:27:49;;;;;;;2.88;0.75;;;;;;;19.47;51.34;100057.53;5052119;28;20025;-65
2021/05/17 10:30:20;;;;;;;2.63;0.90;;;;;;;19.43;51.04;100055.34;5051906;28;20048;-65
2021/05/17 10:32:54;;;;;;;1.58;0.60;;;;;;;19.46;51.34;100065.63;5051763;28;20036;-65
2021/05/17 10:35:31;;;;;;;1.83;0.60;;;;;;;19.45;51.45;100062.13;5058332;28;20194;-66
2021/05/17 10:38:25;;;;;;;1.50;0.60;;;;;;;19.48;51.01;100061.81;5052354;28;20452;-62
2021/05/17 10:44:08;;;;;;;4.90;2.58;;;;;;;19.49;51.31;100063.50;5052042;28;20483;-63
2021/05/17 10:46:41;;;;;;;6.00;3.22;;;;;;;19.49;51.17;100060.03;5051271;28;20095;-63
2021/05/17 10:49:38;;;;;;;6.65;3.60;;;;;;;19.50;51.05;100059.03;5051721;28;20460;-64
2021/05/17 10:52:03;;;;;;;7.07;3.70;;;;;;;19.51;51.41;100064.16;5050955;28;20533;-62
2021/05/17 10:54:31;;;;;;;5.90;3.50;;;;;;;19.53;51.30;100064.81;5051673;28;20025;-61
2021/05/17 10:57:01;;;;;;;6.13;3.35;;;;;;;19.55;51.81;100059.38;5052150;28;20041;-62
2021/05/17 11:02:37;;;;;;;5.53;3.20;;;;;;;19.58;51.41;100069.66;5031485;28;20504;-65
2021/05/17 11:05:18;;;;;;;5.82;3.25;;;;;;;19.62;51.61;100067.56;5031691;28;20266;-65
2021/05/17 11:07:47;;;;;;;5.03;3.10;;;;;;;19.63;51.78;100070.06;5031975;28;20104;-64
2021/05/17 11:10:16;;;;;;;6.55;3.05;;;;;;;19.61;51.51;100072.00;5032447;28;20037;-64
2021/05/17 11:12:41;;;;;;;5.88;3.40;;;;;;;19.61;51.64;100071.19;5032533;28;20025;-64
2021/05/17 11:15:10;;;;;;;5.88;3.47;;;;;;;19.60;51.75;100078.28;5030905;28;20060;-65
2021/05/17 11:18:01;;;;;;;4.68;3.15;;;;;;;19.59;51.59;100084.53;5032299;28;20040;-65
2021/05/17 11:20:43;;;;;;;5.47;3.13;;;;;;;19.57;51.73;100083.88;5031442;28;20037;-64
2021/05/17 11:23:14;;;;;;;6.20;3.40;;;;;;;19.56;51.67;100095.41;5031478;28;20045;-64
2021/05/17 11:31:17;;;;;;;4.35;2.72;;;;;;;19.49;52.02;100121.63;5035648;28;20029;-63
2021/05/17 11:33:57;;;;;;;4.30;2.30;;;;;;;19.46;51.85;100108.72;5035526;28;20056;-61
2021/05/17 11:36:31;;;;;;;4.35;2.50;;;;;;;19.47;52.21;100115.66;5034290;28;20022;-63
2021/05/17 11:39:17;;;;;;;4.68;2.40;;;;;;;19.49;51.77;100121.63;5035091;28;20080;-65
2021/05/17 11:41:47;;;;;;;5.10;2.40;;;;;;;19.48;52.00;100121.78;5034751;28;20029;-65
2021/05/17 11:44:27;;;;;;;4.32;2.45;;;;;;;19.46;51.86;100124.56;5034986;28;20048;-64
2021/05/17 11:46:55;;;;;;;3.83;1.90;;;;;;;19.44;52.28;100128.34;5035002;28;20037;-64
2021/05/17 11:49:22;;;;;;;5.13;1.90;;;;;;;19.42;52.24;100136.41;5033712;28;20025;-65
2021/05/17 11:51:50;;;;;;;6.95;2.30;;;;;;;19.45;52.07;100140.56;5034860;28;20030;-63
2021/05/17 11:54:17;;;;;;;4.55;2.10;;;;;;;19.44;51.87;100137.09;5034355;28;20052;-64
2021/05/17 11:56:45;;;;;;;4.60;2.17;;;;;;;19.47;52.06;100149.16;5034289;28;20032;-62
2021/05/17 11:59:12;;;;;;;4.40;1.85;;;;;;;19.48;52.23;100164.06;5035207;28;20079;-64
2021/05/17 12:01:40;;;;;;;3.55;1.67;;;;;;;19.46;52.13;100155.47;5034806;28;20065;-64
2021/05/17 12:04:14;;;;;;;4.20;1.98;;;;;;;19.48;52.15;100164.06;5033753;28;20381;-63
2021/05/17 12:06:42;;;;;;;4.78;1.73;;;;;;;19.44;52.30;100160.88;5034728;28;20065;-63